createdAt,value
2018-10-09T00:00:30.238Z,76.10
2018-10-09T00:03:00.261Z,75.80
2018-10-09T00:05:30.334Z,74.70
2018-10-09T00:08:01.231Z,75.00
2018-10-09T00:10:32.361Z,74.70
2018-10-09T00:13:02.378Z,74.50
2018-10-09T00:15:32.501Z,74.70
2018-10-09T00:18:02.616Z,74.20
2018-10-09T00:20:32.662Z,73.90
2018-10-09T00:23:03.157Z,73.50
2018-10-09T00:25:33.261Z,73.70
2018-10-09T00:28:03.265Z,73.70
2018-10-09T00:30:33.392Z,74.70
2018-10-09T00:33:03.652Z,74.80
2018-10-09T00:35:33.677Z,75.20
2018-10-09T00:38:03.581Z,74.70
2018-10-09T00:40:33.602Z,74.60
2018-10-09T00:43:03.562Z,74.60
2018-10-09T00:45:33.544Z,74.10
2018-10-09T00:48:03.611Z,74.00
2018-10-09T00:50:33.505Z,73.80
2018-10-09T00:53:03.445Z,74.00
2018-10-09T00:55:34.002Z,74.10
2018-10-09T00:58:04.037Z,74.40
2018-10-09T01:00:34.127Z,74.10
2018-10-09T01:03:04.074Z,73.80
2018-10-09T01:05:34.049Z,73.50
2018-10-09T01:08:04.186Z,73.10
2018-10-09T01:10:34.198Z,73.60
2018-10-09T01:13:04.416Z,73.90
2018-10-09T01:15:34.932Z,73.90
2018-10-09T01:18:04.968Z,74.10
2018-10-09T01:20:35.865Z,76.00
2018-10-09T01:23:06.889Z,78.10
2018-10-09T01:25:36.978Z,78.00
2018-10-09T01:28:06.940Z,78.20
2018-10-09T01:30:37.027Z,78.00
2018-10-09T01:33:07.071Z,78.00
2018-10-09T01:35:37.010Z,77.40
2018-10-09T01:38:07.074Z,77.10
2018-10-09T01:40:37.179Z,76.70
2018-10-09T01:43:07.266Z,77.00
2018-10-09T01:45:37.367Z,76.70
2018-10-09T01:48:10.233Z,76.70
2018-10-09T01:50:40.164Z,76.70
2018-10-09T01:53:10.193Z,76.70
2018-10-09T01:55:46.453Z,76.60
2018-10-09T01:58:16.451Z,76.60
2018-10-09T02:00:46.381Z,76.70
2018-10-09T02:03:16.481Z,78.40
2018-10-09T02:05:46.601Z,78.50
2018-10-09T02:08:16.958Z,78.80
2018-10-09T02:10:47.014Z,79.10
2018-10-09T02:13:17.253Z,79.50
2018-10-09T02:15:47.427Z,79.40
2018-10-09T02:18:17.409Z,79.40
2018-10-09T02:20:47.447Z,78.50
2018-10-09T02:23:17.425Z,79.00
2018-10-09T02:25:47.386Z,77.60
2018-10-09T02:28:17.418Z,77.50
2018-10-09T02:30:47.401Z,76.80
2018-10-09T02:33:17.710Z,76.90
2018-10-09T02:35:47.732Z,76.60
2018-10-09T02:38:17.889Z,76.60
2018-10-09T02:40:47.848Z,75.90
2018-10-09T02:43:17.787Z,75.20
2018-10-09T02:45:47.814Z,74.20
2018-10-09T02:48:17.781Z,74.50
2018-10-09T02:50:47.812Z,74.50
2018-10-09T02:53:17.783Z,74.40
2018-10-09T02:55:47.802Z,74.10
2018-10-09T02:58:17.762Z,73.30
2018-10-09T03:00:47.762Z,73.50
2018-10-09T03:03:17.702Z,73.40
2018-10-09T03:05:47.797Z,74.00
2018-10-09T03:08:17.774Z,75.00
2018-10-09T03:10:47.804Z,76.30
2018-10-09T03:13:17.750Z,76.30
2018-10-09T03:15:47.760Z,76.00
2018-10-09T03:18:17.752Z,75.50
2018-10-09T03:20:47.835Z,75.20
2018-10-09T03:23:17.753Z,75.20
2018-10-09T03:25:47.783Z,75.80
2018-10-09T03:28:17.759Z,77.50
2018-10-09T03:30:47.881Z,78.20
2018-10-09T03:33:17.918Z,78.90
2018-10-09T03:35:47.878Z,79.00
2018-10-09T03:38:18.033Z,79.40
2018-10-09T03:40:48.016Z,79.90
2018-10-09T03:43:17.932Z,80.50
2018-10-09T03:45:47.890Z,81.10
2018-10-09T03:48:17.946Z,81.30
2018-10-09T03:50:47.941Z,81.10
2018-10-09T03:53:18.024Z,79.70
2018-10-09T03:55:48.210Z,79.30
2018-10-09T03:58:18.160Z,77.20
2018-10-09T04:00:48.170Z,76.60
2018-10-09T04:03:18.233Z,76.30
2018-10-09T04:05:48.211Z,76.30
2018-10-09T04:08:18.319Z,75.60
2018-10-09T04:10:48.338Z,73.40
2018-10-09T04:13:18.358Z,74.20
2018-10-09T04:15:48.405Z,74.10
2018-10-09T04:18:18.400Z,73.80
2018-10-09T04:20:48.561Z,73.60
2018-10-09T04:23:18.562Z,73.60
2018-10-09T04:25:48.532Z,72.60
2018-10-09T04:28:18.512Z,73.60
2018-10-09T04:30:48.727Z,73.80
2018-10-09T04:33:18.857Z,73.70
2018-10-09T04:35:48.854Z,73.80
2018-10-09T04:38:18.802Z,74.20
2018-10-09T04:40:49.201Z,74.30
2018-10-09T04:43:19.306Z,74.30
2018-10-09T04:45:49.420Z,74.20
2018-10-09T04:48:19.330Z,74.70
2018-10-09T04:50:49.293Z,74.40
2018-10-09T04:53:19.294Z,74.30
2018-10-09T04:55:49.481Z,75.60
2018-10-09T04:58:19.525Z,76.00
2018-10-09T05:00:49.618Z,75.90
2018-10-09T05:03:19.502Z,76.00
2018-10-09T05:05:49.491Z,76.00
2018-10-09T05:08:19.527Z,76.00
2018-10-09T05:10:49.732Z,75.80
2018-10-09T05:13:19.784Z,75.90
2018-10-09T05:15:49.770Z,76.00
2018-10-09T05:18:19.901Z,76.10
2018-10-09T05:20:49.893Z,76.10
2018-10-09T05:23:19.917Z,76.10
2018-10-09T05:25:49.766Z,76.10
2018-10-09T05:28:20.174Z,76.60
2018-10-09T05:30:50.221Z,76.40
2018-10-09T05:33:20.795Z,76.20
2018-10-09T05:35:50.807Z,76.20
2018-10-09T05:38:21.445Z,76.30
2018-10-09T05:40:51.399Z,76.30
2018-10-09T05:43:21.397Z,76.30
2018-10-09T05:45:51.784Z,76.40
2018-10-09T05:48:21.697Z,76.00
2018-10-09T05:50:51.636Z,76.00
2018-10-09T05:53:21.585Z,76.40
2018-10-09T05:55:51.658Z,76.30
2018-10-09T05:58:21.636Z,76.40
2018-10-09T06:00:51.596Z,77.50
2018-10-09T06:03:21.534Z,77.60
2018-10-09T06:05:51.513Z,77.20
2018-10-09T06:08:22.180Z,76.60
2018-10-09T06:10:52.094Z,76.70
2018-10-09T06:13:22.642Z,76.80
2018-10-09T06:15:52.907Z,76.90
2018-10-09T06:18:23.130Z,77.00
2018-10-09T06:20:53.348Z,77.10
2018-10-09T06:23:23.393Z,78.00
2018-10-09T06:25:53.381Z,78.30
2018-10-09T06:28:23.416Z,78.30
2018-10-09T06:30:53.657Z,77.90
2018-10-09T06:33:23.581Z,78.00
2018-10-09T06:35:53.690Z,78.90
2018-10-09T06:38:23.654Z,77.80
2018-10-09T06:40:53.580Z,78.80
2018-10-09T06:43:23.510Z,80.80
2018-10-09T06:45:53.637Z,81.30
2018-10-09T06:48:23.562Z,82.50
2018-10-09T06:50:53.473Z,81.90
2018-10-09T06:53:23.473Z,81.00
2018-10-09T06:55:53.437Z,81.60
2018-10-09T06:58:23.400Z,82.30
2018-10-09T07:00:53.385Z,83.80
2018-10-09T07:03:23.457Z,84.90
2018-10-09T07:05:53.420Z,86.40
2018-10-09T07:08:23.372Z,85.50
2018-10-09T07:10:53.610Z,85.50
2018-10-09T07:13:23.598Z,85.30
2018-10-09T07:15:53.527Z,83.10
2018-10-09T07:18:23.465Z,82.70
2018-10-09T07:20:53.355Z,83.00
2018-10-09T07:23:23.299Z,82.50
2018-10-09T07:25:53.233Z,82.30
2018-10-09T07:28:23.312Z,82.80
2018-10-09T07:30:53.222Z,83.50
2018-10-09T07:33:23.251Z,84.10
2018-10-09T07:35:53.279Z,86.00
2018-10-09T07:38:23.239Z,86.50
2018-10-09T07:40:53.667Z,86.10
2018-10-09T07:43:23.617Z,86.40
2018-10-09T07:45:53.668Z,87.40
2018-10-09T07:48:23.632Z,87.90
2018-10-09T07:50:53.578Z,86.00
2018-10-09T07:53:23.525Z,84.90
2018-10-09T07:55:53.503Z,84.00
2018-10-09T07:58:23.643Z,82.10
2018-10-09T08:00:53.657Z,81.00
2018-10-09T08:03:23.702Z,80.20
2018-10-09T08:05:53.643Z,80.30
2018-10-09T08:08:23.614Z,79.20
2018-10-09T08:10:53.677Z,76.90
2018-10-09T08:13:23.626Z,75.40
2018-10-09T08:15:53.632Z,74.00
2018-10-09T08:18:23.604Z,74.20
2018-10-09T08:20:53.564Z,72.80
2018-10-09T08:23:23.538Z,70.90
2018-10-09T08:25:53.516Z,71.00
2018-10-09T08:28:23.658Z,69.80
2018-10-09T08:30:53.618Z,69.20
2018-10-09T08:33:23.664Z,70.40
2018-10-09T08:35:54.663Z,70.10
2018-10-09T08:38:24.669Z,69.30
2018-10-09T08:40:54.679Z,69.50
2018-10-09T08:43:24.700Z,69.50
2018-10-09T08:45:54.654Z,67.80
2018-10-09T08:48:24.697Z,67.20
2018-10-09T08:50:54.810Z,65.90
2018-10-09T08:53:24.726Z,65.10
2018-10-09T08:55:54.741Z,64.50
2018-10-09T08:58:24.754Z,63.00
2018-10-09T09:00:54.739Z,62.50
2018-10-09T09:03:24.741Z,62.80
2018-10-09T09:05:54.711Z,62.30
2018-10-09T09:08:24.815Z,61.50
2018-10-09T09:10:54.860Z,61.10
2018-10-09T09:13:24.868Z,60.30
2018-10-09T09:15:54.891Z,60.50
2018-10-09T09:18:24.841Z,60.20
2018-10-09T09:20:54.844Z,60.10
2018-10-09T09:23:24.939Z,60.00
2018-10-09T09:25:54.903Z,60.50
2018-10-09T09:28:24.933Z,60.30
2018-10-09T09:30:55.011Z,60.00
2018-10-09T09:33:25.076Z,60.00
2018-10-09T09:35:55.082Z,60.60
2018-10-09T09:38:25.102Z,60.90
2018-10-09T09:40:55.022Z,60.70
2018-10-09T09:43:25.171Z,60.30
2018-10-09T09:45:55.370Z,59.70
2018-10-09T09:48:25.524Z,59.00
2018-10-09T09:50:55.473Z,59.20
2018-10-09T09:53:25.482Z,59.20
2018-10-09T09:55:55.588Z,57.40
2018-10-09T09:58:25.705Z,56.20
2018-10-09T10:00:58.331Z,55.60
2018-10-09T10:03:28.594Z,56.30
2018-10-09T10:05:58.553Z,55.40
2018-10-09T10:08:28.527Z,55.60
2018-10-09T10:10:58.482Z,55.00
2018-10-09T10:13:28.439Z,55.00
2018-10-09T10:15:58.416Z,54.70
2018-10-09T10:18:28.983Z,54.40
2018-10-09T10:20:59.043Z,54.20
2018-10-09T10:23:29.014Z,53.30
2018-10-09T10:25:59.576Z,52.80
2018-10-09T10:28:29.470Z,52.40
2018-10-09T10:30:59.459Z,52.00
2018-10-09T10:33:29.485Z,51.40
2018-10-09T10:35:59.411Z,51.50
2018-10-09T10:38:29.378Z,51.00
2018-10-09T10:40:59.348Z,50.80
2018-10-09T10:43:29.335Z,50.90
2018-10-09T10:45:59.327Z,50.20
2018-10-09T10:48:29.299Z,50.60
2018-10-09T10:50:59.226Z,50.70
2018-10-09T10:53:29.195Z,49.60
2018-10-09T10:55:59.248Z,49.60
2018-10-09T10:58:29.196Z,50.20
2018-10-09T11:00:59.273Z,48.30
2018-10-09T11:03:29.189Z,47.80
2018-10-09T11:05:59.155Z,47.50
2018-10-09T11:08:29.169Z,46.70
2018-10-09T11:10:59.158Z,46.40
2018-10-09T11:13:29.099Z,45.80
2018-10-09T11:15:59.018Z,45.10
2018-10-09T11:18:28.941Z,45.00
2018-10-09T11:20:58.948Z,44.90
2018-10-09T11:23:28.982Z,44.50
2018-10-09T11:25:59.015Z,44.60
2018-10-09T11:28:28.962Z,42.30
2018-10-09T11:30:58.900Z,42.30
2018-10-09T11:33:29.019Z,41.10
2018-10-09T11:35:59.143Z,40.80
2018-10-09T11:38:29.241Z,41.20
2018-10-09T11:40:59.166Z,41.50
2018-10-09T11:43:29.151Z,41.70
2018-10-09T11:45:59.124Z,42.30
2018-10-09T11:48:29.167Z,41.40
2018-10-09T11:50:59.277Z,41.00
2018-10-09T11:53:29.277Z,40.20
2018-10-09T11:55:59.197Z,40.40
2018-10-09T11:58:29.533Z,40.40
2018-10-09T12:01:02.701Z,40.80
2018-10-09T12:03:32.694Z,41.70
2018-10-09T12:06:02.747Z,41.90
2018-10-09T12:08:33.138Z,40.40
2018-10-09T12:11:03.279Z,40.80
2018-10-09T12:13:33.257Z,41.40
2018-10-09T12:16:03.255Z,40.70
2018-10-09T12:18:33.219Z,41.60
2018-10-09T12:21:03.277Z,40.30
2018-10-09T12:23:33.231Z,40.30
2018-10-09T12:26:03.263Z,40.20
2018-10-09T12:28:33.248Z,40.20
2018-10-09T12:31:03.517Z,42.30
2018-10-09T12:33:33.781Z,41.60
2018-10-09T12:36:04.189Z,40.50
2018-10-09T12:38:34.182Z,40.10
2018-10-09T12:41:04.150Z,40.30
2018-10-09T12:43:34.437Z,40.40
2018-10-09T12:46:04.683Z,41.60
2018-10-09T12:48:34.615Z,40.70
2018-10-09T12:51:04.639Z,40.50
2018-10-09T12:53:34.631Z,40.50
2018-10-09T12:56:04.620Z,40.50
2018-10-09T12:58:34.774Z,40.50
2018-10-09T13:01:04.720Z,40.80
2018-10-09T13:03:34.814Z,41.30
2018-10-09T13:06:04.751Z,41.50
2018-10-09T13:08:34.779Z,41.60
2018-10-09T13:11:04.814Z,41.60
2018-10-09T13:13:35.128Z,40.70
2018-10-09T13:16:05.352Z,41.00
2018-10-09T13:18:35.402Z,40.60
2018-10-09T13:21:05.429Z,40.90
2018-10-09T13:23:35.646Z,40.50
2018-10-09T13:26:05.594Z,40.40
2018-10-09T13:28:35.549Z,41.00
2018-10-09T13:31:05.485Z,40.70
2018-10-09T13:33:35.428Z,40.90
2018-10-09T13:36:05.438Z,41.60
2018-10-09T13:38:35.552Z,41.10
2018-10-09T13:41:06.343Z,41.20
2018-10-09T13:43:36.308Z,41.20
2018-10-09T13:46:06.262Z,41.40
2018-10-09T13:48:36.188Z,41.30
2018-10-09T13:51:06.461Z,42.70
2018-10-09T13:53:36.631Z,44.00
2018-10-09T13:56:06.622Z,44.00
2018-10-09T13:58:36.599Z,44.10
2018-10-09T14:01:06.530Z,44.00
2018-10-09T14:03:36.508Z,45.00
2018-10-09T14:06:06.526Z,45.00
2018-10-09T14:08:36.447Z,44.90
2018-10-09T14:11:06.977Z,44.90
2018-10-09T14:13:37.115Z,44.80
2018-10-09T14:16:07.310Z,44.80
2018-10-09T14:18:37.262Z,45.00
2018-10-09T14:21:07.526Z,45.70
2018-10-09T14:23:37.545Z,45.50
2018-10-09T14:26:08.156Z,45.90
2018-10-09T14:28:38.095Z,45.70
2018-10-09T14:31:08.155Z,46.70
2018-10-09T14:33:38.095Z,46.40
2018-10-09T14:36:08.088Z,46.70
2018-10-09T14:38:38.045Z,46.60
2018-10-09T14:41:08.182Z,47.40
2018-10-09T14:43:38.114Z,47.50
2018-10-09T14:46:08.966Z,48.00
2018-10-09T14:48:38.942Z,48.20
2018-10-09T14:51:09.039Z,48.40
2018-10-09T14:53:39.250Z,48.60
2018-10-09T14:56:09.301Z,48.90
2018-10-09T14:58:39.262Z,49.20
2018-10-09T15:01:09.787Z,49.70
2018-10-09T15:03:39.731Z,50.00
2018-10-09T15:06:09.705Z,50.20
2018-10-09T15:08:39.654Z,50.60
2018-10-09T15:11:09.651Z,50.90
2018-10-09T15:13:39.573Z,51.20
2018-10-09T15:16:09.538Z,51.20
2018-10-09T15:18:39.474Z,51.30
2018-10-09T15:21:10.417Z,51.40
2018-10-09T15:23:40.382Z,51.90
2018-10-09T15:26:10.641Z,51.90
2018-10-09T15:28:41.002Z,52.40
2018-10-09T15:31:10.963Z,52.60
2018-10-09T15:36:41.996Z,53.00
2018-10-09T15:39:12.998Z,53.70
2018-10-09T15:41:43.673Z,54.30
2018-10-09T15:44:13.729Z,54.40
2018-10-09T15:46:44.131Z,54.10
2018-10-09T15:49:14.085Z,55.00
2018-10-09T15:51:43.986Z,55.30
2018-10-09T15:54:13.910Z,55.90
2018-10-09T15:56:43.919Z,55.80
2018-10-09T15:59:13.849Z,56.00
2018-10-09T16:01:44.140Z,56.60
2018-10-09T16:04:14.241Z,56.80
2018-10-09T16:06:43.940Z,56.80
2018-10-09T16:09:14.506Z,56.70
2018-10-09T16:11:44.502Z,57.50
2018-10-09T16:14:14.753Z,57.60
2018-10-09T16:16:44.787Z,58.10
2018-10-09T16:19:14.749Z,59.40
2018-10-09T16:21:44.700Z,58.90
2018-10-09T16:24:14.623Z,59.20
2018-10-09T16:26:44.624Z,59.80
2018-10-09T16:29:14.593Z,60.70
2018-10-09T16:31:44.574Z,61.10
2018-10-09T16:34:14.491Z,61.40
2018-10-09T16:36:44.494Z,62.00
2018-10-09T16:39:14.785Z,62.80
2018-10-09T16:41:44.685Z,62.70
2018-10-09T16:44:14.618Z,63.00
2018-10-09T16:46:44.598Z,63.50
2018-10-09T16:49:14.610Z,63.80
2018-10-09T16:51:44.625Z,64.90
2018-10-09T16:54:14.603Z,65.40
2018-10-09T16:56:44.556Z,66.40
2018-10-09T16:59:14.514Z,67.40
2018-10-09T17:01:44.450Z,68.20
2018-10-09T17:04:14.468Z,68.20
2018-10-09T17:06:44.646Z,69.20
2018-10-09T17:09:40.823Z,69.10
2018-10-09T17:12:10.739Z,69.10
2018-10-09T17:14:40.700Z,69.70
2018-10-09T17:17:10.610Z,70.60
2018-10-09T17:19:40.713Z,70.30
2018-10-09T17:22:10.662Z,70.20
2018-10-09T17:24:40.670Z,71.50
2018-10-09T17:27:10.952Z,71.90
2018-10-09T17:29:41.045Z,73.40
2018-10-09T17:32:10.989Z,73.80
2018-10-09T17:34:40.960Z,74.00
2018-10-09T17:37:11.162Z,74.30
2018-10-09T17:39:41.850Z,74.40
2018-10-09T17:42:11.937Z,74.10
2018-10-09T17:44:42.141Z,74.50
2018-10-09T17:47:12.106Z,74.80
2018-10-09T17:49:42.086Z,75.10
2018-10-09T17:52:12.607Z,76.50
2018-10-09T17:54:42.524Z,76.50
2018-10-09T17:57:12.481Z,77.50
2018-10-09T17:59:42.430Z,78.80
2018-10-09T18:02:12.346Z,79.00
2018-10-09T18:04:42.272Z,77.90
2018-10-09T18:07:12.302Z,77.30
2018-10-09T18:09:42.304Z,76.80
2018-10-09T18:12:12.610Z,77.30
2018-10-09T18:14:42.687Z,77.20
2018-10-09T18:17:12.578Z,77.20
2018-10-09T18:19:42.461Z,76.90
2018-10-09T18:22:12.651Z,76.70
2018-10-09T18:24:42.528Z,76.80
2018-10-09T18:27:12.425Z,77.10
2018-10-09T18:29:42.365Z,78.00
2018-10-09T18:32:13.349Z,77.60
2018-10-09T18:34:43.306Z,77.30
2018-10-09T18:37:21.387Z,79.00
2018-10-09T18:39:51.444Z,79.00
2018-10-09T18:42:21.457Z,78.90
2018-10-09T18:44:51.736Z,78.40
2018-10-09T18:47:27.478Z,77.40
2018-10-09T18:49:57.830Z,76.90
2018-10-09T18:52:27.905Z,76.40
2018-10-09T18:54:58.405Z,76.40
2018-10-09T18:57:28.508Z,76.80
2018-10-09T18:59:58.506Z,76.50
2018-10-09T19:02:28.588Z,76.40
2018-10-09T19:04:58.606Z,77.00
2018-10-09T19:07:28.638Z,78.90
2018-10-09T19:09:58.758Z,79.10
2018-10-09T19:12:28.746Z,78.90
2018-10-09T19:14:58.801Z,78.20
2018-10-09T19:17:28.843Z,77.90
2018-10-09T19:19:58.830Z,77.20
2018-10-09T19:22:28.950Z,77.80
2018-10-09T19:24:58.970Z,76.50
2018-10-09T19:27:28.914Z,77.20
2018-10-09T19:29:58.967Z,77.00
2018-10-09T19:32:29.135Z,77.00
2018-10-09T19:34:59.126Z,77.10
2018-10-09T19:37:29.317Z,76.70
2018-10-09T19:39:59.487Z,76.70
2018-10-09T19:42:29.458Z,76.60
2018-10-09T19:44:59.560Z,76.80
2018-10-09T19:47:33.649Z,76.90
2018-10-09T19:50:04.010Z,77.20
2018-10-09T19:52:34.298Z,77.80
2018-10-09T19:55:04.368Z,78.00
2018-10-09T19:57:34.365Z,77.50
2018-10-09T20:00:04.935Z,77.90
2018-10-09T20:02:34.931Z,78.30
2018-10-09T20:05:05.058Z,78.80
2018-10-09T20:07:35.187Z,79.70
2018-10-09T20:10:05.252Z,78.80
2018-10-09T20:12:35.217Z,79.00
2018-10-09T20:15:05.308Z,78.90
2018-10-09T20:17:35.257Z,78.90
2018-10-09T20:20:06.433Z,78.90
2018-10-09T20:22:36.349Z,79.00
2018-10-09T20:25:06.390Z,79.00
2018-10-09T20:27:36.334Z,79.00
2018-10-09T20:30:06.302Z,78.70
2018-10-09T20:32:36.230Z,78.90
2018-10-09T20:35:06.390Z,79.20
2018-10-09T20:37:36.454Z,80.20
2018-10-09T20:40:06.410Z,80.20
2018-10-09T20:42:36.478Z,80.10
2018-10-09T20:45:07.140Z,79.90
2018-10-09T20:47:43.164Z,79.50
2018-10-09T20:50:14.136Z,79.20
2018-10-09T20:52:44.251Z,79.20
2018-10-09T20:55:14.206Z,79.10
2018-10-09T20:57:44.201Z,79.30
2018-10-09T21:00:14.212Z,79.40
2018-10-09T21:02:44.115Z,79.50
2018-10-09T21:05:14.052Z,80.10
2018-10-09T21:07:43.940Z,80.00
2018-10-09T21:10:14.245Z,80.80
2018-10-09T21:12:44.185Z,80.40
2018-10-09T21:15:14.174Z,80.00
2018-10-09T21:17:44.248Z,80.00
2018-10-09T21:20:14.182Z,80.00
2018-10-09T21:22:44.505Z,79.80
2018-10-09T21:25:14.519Z,79.80
2018-10-09T21:27:44.498Z,79.90
2018-10-09T21:30:14.443Z,79.80
2018-10-09T21:32:44.481Z,79.80
2018-10-09T21:35:14.417Z,80.40
2018-10-09T21:37:44.396Z,79.70
2018-10-09T21:40:14.329Z,82.40
2018-10-09T21:42:44.245Z,82.70
2018-10-09T21:45:14.216Z,82.50
2018-10-09T21:47:49.445Z,82.10
2018-10-09T21:50:19.377Z,81.70
2018-10-09T21:52:49.440Z,81.10
2018-10-09T21:55:19.567Z,84.20
2018-10-09T21:57:49.568Z,84.80
2018-10-09T22:00:19.579Z,85.10
2018-10-09T22:02:49.515Z,84.60
2018-10-09T22:05:19.501Z,83.60
2018-10-09T22:07:49.572Z,84.00
2018-10-09T22:10:19.461Z,84.50
2018-10-09T22:12:49.372Z,83.80
2018-10-09T22:15:19.287Z,83.60
2018-10-09T22:17:49.277Z,83.00
2018-10-09T22:20:19.229Z,83.50
2018-10-09T22:22:49.160Z,83.10
2018-10-09T22:25:19.159Z,83.00
2018-10-09T22:27:49.286Z,82.90
2018-10-09T22:30:19.222Z,84.90
2018-10-09T22:33:08.844Z,84.80
2018-10-09T22:35:39.087Z,84.40
2018-10-09T22:38:09.374Z,83.70
2018-10-09T22:40:39.505Z,83.00
2018-10-09T22:43:09.647Z,82.10
2018-10-09T22:45:39.675Z,82.10
2018-10-09T22:48:09.784Z,82.20
2018-10-09T22:50:39.769Z,83.30
2018-10-09T22:53:10.085Z,83.50
2018-10-09T22:55:40.146Z,82.70
2018-10-09T22:58:10.146Z,82.50
2018-10-09T23:00:40.423Z,82.60
2018-10-09T23:03:10.614Z,82.50
2018-10-09T23:05:40.601Z,82.30
2018-10-09T23:08:10.625Z,83.00
2018-10-09T23:10:40.588Z,81.90
2018-10-09T23:13:10.687Z,81.90
2018-10-09T23:15:40.597Z,81.70
2018-10-09T23:18:10.572Z,81.60
2018-10-09T23:20:40.493Z,81.40
2018-10-09T23:23:10.429Z,81.30
2018-10-09T23:25:40.431Z,81.10
2018-10-09T23:28:10.438Z,80.80
2018-10-09T23:30:40.488Z,81.00
2018-10-09T23:33:10.468Z,80.90
2018-10-09T23:35:40.486Z,81.50
2018-10-09T23:38:10.609Z,81.60
2018-10-09T23:40:40.593Z,82.60
2018-10-09T23:43:10.613Z,82.50
2018-10-09T23:45:40.503Z,81.60
2018-10-09T23:48:10.955Z,83.30
2018-10-09T23:50:42.077Z,83.50
2018-10-09T23:53:18.871Z,83.30
2018-10-09T23:55:48.885Z,83.00
2018-10-09T23:58:18.972Z,82.70
